sensor_id;sensor_type;location;lat;lon;timestamp;pressure;altitude;pressure_sealevel;temperature;humidity
58757;BME280;44527;47.460;19.016;2023-02-12T00:02:30;101531.53;;;4.64;85.06
58757;BME280;44527;47.460;19.016;2023-02-12T00:05:36;101527.25;;;4.61;85.30
58757;BME280;44527;47.460;19.016;2023-02-12T00:08:39;101518.53;;;4.64;85.38
58757;BME280;44527;47.460;19.016;2023-02-12T00:11:41;101518.66;;;4.59;85.73
58757;BME280;44527;47.460;19.016;2023-02-12T00:14:43;101535.91;;;4.62;85.81
58757;BME280;44527;47.460;19.016;2023-02-12T00:17:46;101512.50;;;4.62;85.91
58757;BME280;44527;47.460;19.016;2023-02-12T00:20:48;101511.63;;;4.63;86.25
58757;BME280;44527;47.460;19.016;2023-02-12T00:23:51;101519.44;;;4.61;86.38
58757;BME280;44527;47.460;19.016;2023-02-12T00:26:53;101508.28;;;4.58;86.55
58757;BME280;44527;47.460;19.016;2023-02-12T00:29:56;101489.16;;;4.59;86.87
58757;BME280;44527;47.460;19.016;2023-02-12T00:33:00;101510.84;;;4.59;87.00
58757;BME280;44527;47.460;19.016;2023-02-12T00:36:03;101502.22;;;4.57;87.20
58757;BME280;44527;47.460;19.016;2023-02-12T00:39:06;101492.75;;;4.55;87.45
58757;BME280;44527;47.460;19.016;2023-02-12T00:42:10;101506.53;;;4.58;87.35
58757;BME280;44527;47.460;19.016;2023-02-12T00:45:12;101492.66;;;4.58;87.67
58757;BME280;44527;47.460;19.016;2023-02-12T00:48:15;101497.03;;;4.56;87.80
58757;BME280;44527;47.460;19.016;2023-02-12T00:51:18;101503.84;;;4.63;87.52
58757;BME280;44527;47.460;19.016;2023-02-12T00:54:20;101478.78;;;4.59;87.61
58757;BME280;44527;47.460;19.016;2023-02-12T00:57:23;101496.06;;;4.61;87.61
58757;BME280;44527;47.460;19.016;2023-02-12T01:00:26;101503.84;;;4.63;87.61
58757;BME280;44527;47.460;19.016;2023-02-12T01:03:31;101496.03;;;4.63;87.68
58757;BME280;44527;47.460;19.016;2023-02-12T01:06:33;101491.63;;;4.65;87.50
58757;BME280;44527;47.460;19.016;2023-02-12T01:09:36;101507.28;;;4.64;87.70
58757;BME280;44527;47.460;19.016;2023-02-12T01:12:40;101497.03;;;4.56;88.00
58757;BME280;44527;47.460;19.016;2023-02-12T01:15:42;101505.72;;;4.56;88.07
58757;BME280;44527;47.460;19.016;2023-02-12T01:18:46;101502.22;;;4.57;87.95
58757;BME280;44527;47.460;19.016;2023-02-12T01:21:49;101493.59;;;4.55;88.04
58757;BME280;44527;47.460;19.016;2023-02-12T01:24:51;101496.25;;;4.52;88.28
58757;BME280;44527;47.460;19.016;2023-02-12T01:27:54;101491.97;;;4.51;88.29
58757;BME280;44527;47.460;19.016;2023-02-12T01:30:57;101498.13;;;4.47;88.51
58757;BME280;44527;47.460;19.016;2023-02-12T01:34:01;101487.75;;;4.46;88.68
58757;BME280;44527;47.460;19.016;2023-02-12T01:37:03;101472.12;;;4.47;88.60
58757;BME280;44527;47.460;19.016;2023-02-12T01:40:07;101464.56;;;4.36;89.06
58757;BME280;44527;47.460;19.016;2023-02-12T01:43:11;101453.31;;;4.36;89.14
58757;BME280;44527;47.460;19.016;2023-02-12T01:46:14;101481.84;;;4.39;88.95
58757;BME280;44527;47.460;19.016;2023-02-12T01:49:20;101461.91;;;4.40;89.02
58757;BME280;44527;47.460;19.016;2023-02-12T01:52:32;101483.53;;;4.42;88.72
58757;BME280;44527;47.460;19.016;2023-02-12T01:55:37;101479.19;;;4.41;88.88
58757;BME280;44527;47.460;19.016;2023-02-12T01:58:41;101486.91;;;4.44;88.53
58757;BME280;44527;47.460;19.016;2023-02-12T02:01:45;101486.97;;;4.42;88.35
58757;BME280;44527;47.460;19.016;2023-02-12T02:04:55;101503.25;;;4.50;88.47
58757;BME280;44527;47.460;19.016;2023-02-12T02:07:59;101498.13;;;4.47;88.45
58757;BME280;44527;47.460;19.016;2023-02-12T02:11:01;101508.47;;;4.49;88.32
58757;BME280;44527;47.460;19.016;2023-02-12T02:14:24;101484.19;;;4.50;87.85
58757;BME280;44527;47.460;19.016;2023-02-12T02:17:52;101490.91;;;4.60;87.31
58757;BME280;44527;47.460;19.016;2023-02-12T02:21:29;101478.03;;;4.54;87.64
58757;BME280;44527;47.460;19.016;2023-02-12T02:24:57;101507.44;;;4.56;87.72
58757;BME280;44527;47.460;19.016;2023-02-12T02:31:40;101504.84;;;4.56;88.22
58757;BME280;44527;47.460;19.016;2023-02-12T02:38:31;101526.72;;;4.47;88.80
58757;BME280;44527;47.460;19.016;2023-02-12T02:41:42;101528.25;;;4.56;88.25
58757;BME280;44527;47.460;19.016;2023-02-12T02:44:54;101531.94;;;4.47;88.80
58757;BME280;44527;47.460;19.016;2023-02-12T02:48:02;101534.59;;;4.44;88.79
58757;BME280;44527;47.460;19.016;2023-02-12T02:51:20;101533.69;;;4.45;88.41
58757;BME280;44527;47.460;19.016;2023-02-12T02:54:39;101539.81;;;4.43;88.21
58757;BME280;44527;47.460;19.016;2023-02-12T03:01:00;101538.37;;;4.29;89.47
58757;BME280;44527;47.460;19.016;2023-02-12T03:04:11;101536.69;;;4.25;90.00
58757;BME280;44527;47.460;19.016;2023-02-12T03:07:21;101556.69;;;4.22;90.15
58757;BME280;44527;47.460;19.016;2023-02-12T03:10:33;101551.56;;;4.20;90.35
58757;BME280;44527;47.460;19.016;2023-02-12T03:13:48;101560.03;;;4.28;89.74
58757;BME280;44527;47.460;19.016;2023-02-12T03:17:09;101563.94;;;4.06;90.14
58757;BME280;44527;47.460;19.016;2023-02-12T03:20:18;101569.31;;;3.98;91.31
58757;BME280;44527;47.460;19.016;2023-02-12T03:23:27;101568.53;;;3.91;91.30
58757;BME280;44527;47.460;19.016;2023-02-12T03:26:41;101571.19;;;3.88;91.93
58757;BME280;44527;47.460;19.016;2023-02-12T03:29:45;101574.81;;;3.81;92.13
58757;BME280;44527;47.460;19.016;2023-02-12T03:33:04;101581.59;;;3.88;92.49
58757;BME280;44527;47.460;19.016;2023-02-12T03:39:56;101583.16;;;3.99;92.36
58757;BME280;44527;47.460;19.016;2023-02-12T03:43:12;101584.78;;;4.04;92.27
58757;BME280;44527;47.460;19.016;2023-02-12T03:46:24;101582.91;;;4.11;91.59
58757;BME280;44527;47.460;19.016;2023-02-12T03:49:36;101582.03;;;4.12;91.52
58757;BME280;44527;47.460;19.016;2023-02-12T03:52:41;101595.13;;;4.06;92.07
58757;BME280;44527;47.460;19.016;2023-02-12T03:55:47;101590.03;;;4.01;92.50
58757;BME280;44527;47.460;19.016;2023-02-12T03:58:51;101595.97;;;4.06;92.19
58757;BME280;44527;47.460;19.016;2023-02-12T04:01:57;101593.47;;;4.02;93.06
58757;BME280;44527;47.460;19.016;2023-02-12T04:05:05;101603.09;;;3.97;93.54
58757;BME280;44527;47.460;19.016;2023-02-12T04:08:08;101600.56;;;3.94;93.18
58757;BME280;44527;47.460;19.016;2023-02-12T04:11:22;101607.44;;;3.96;93.51
58757;BME280;44527;47.460;19.016;2023-02-12T04:27:47;101656.81;;;3.95;93.14
58757;BME280;44527;47.460;19.016;2023-02-12T04:31:01;101675.78;;;4.00;92.23
58757;BME280;44527;47.460;19.016;2023-02-12T04:37:17;101674.72;;;4.11;91.90
58757;BME280;44527;47.460;19.016;2023-02-12T04:40:21;101670.31;;;4.15;91.41
58757;BME280;44527;47.460;19.016;2023-02-12T04:43:28;101661.66;;;4.13;91.50
58757;BME280;44527;47.460;19.016;2023-02-12T04:46:31;101668.50;;;4.20;91.44
58757;BME280;44527;47.460;19.016;2023-02-12T04:49:33;101671.88;;;4.24;90.85
58757;BME280;44527;47.460;19.016;2023-02-12T04:52:36;101684.87;;;4.22;90.43
58757;BME280;44527;47.460;19.016;2023-02-12T04:55:38;101697.97;;;4.18;90.56
58757;BME280;44527;47.460;19.016;2023-02-12T04:58:41;101698.19;;;4.05;91.12
58757;BME280;44527;47.460;19.016;2023-02-12T05:01:44;101703.66;;;3.88;90.69
58757;BME280;44527;47.460;19.016;2023-02-12T05:04:48;101707.41;;;3.72;91.61
58757;BME280;44527;47.460;19.016;2023-02-12T05:07:51;101714.66;;;3.50;93.31
58757;BME280;44527;47.460;19.016;2023-02-12T05:10:53;101712.16;;;3.42;93.50
58757;BME280;44527;47.460;19.016;2023-02-12T05:13:57;101716.50;;;3.42;92.15
58757;BME280;44527;47.460;19.016;2023-02-12T05:16:59;101728.13;;;3.15;93.92
58757;BME280;44527;47.460;19.016;2023-02-12T05:20:03;101735.91;;;3.16;95.26
58757;BME280;44527;47.460;19.016;2023-02-12T05:23:05;101728.66;;;3.40;96.10
58757;BME280;44527;47.460;19.016;2023-02-12T05:26:12;101739.13;;;3.34;96.16
58757;BME280;44527;47.460;19.016;2023-02-12T05:29:15;101747.03;;;3.25;94.92
58757;BME280;44527;47.460;19.016;2023-02-12T05:32:17;101765.25;;;3.20;95.02
58757;BME280;44527;47.460;19.016;2023-02-12T05:35:19;101763.59;;;3.14;95.60
58757;BME280;44527;47.460;19.016;2023-02-12T05:38:22;101757.44;;;3.25;96.21
58757;BME280;44527;47.460;19.016;2023-02-12T05:41:26;101758.44;;;3.11;97.40
58757;BME280;44527;47.460;19.016;2023-02-12T05:44:28;101763.75;;;3.02;96.39
58757;BME280;44527;47.460;19.016;2023-02-12T05:47:31;101769.00;;;2.97;97.28
58757;BME280;44527;47.460;19.016;2023-02-12T05:50:33;101774.19;;;2.97;96.65
58757;BME280;44527;47.460;19.016;2023-02-12T05:53:42;101774.25;;;2.91;97.50
58757;BME280;44527;47.460;19.016;2023-02-12T05:56:46;101787.22;;;2.91;98.18
58757;BME280;44527;47.460;19.016;2023-02-12T05:59:49;101792.44;;;2.87;96.34
58757;BME280;44527;47.460;19.016;2023-02-12T06:02:51;101787.47;;;2.68;97.87
58757;BME280;44527;47.460;19.016;2023-02-12T06:05:54;101798.88;;;2.47;98.41
58757;BME280;44527;47.460;19.016;2023-02-12T06:08:58;101807.50;;;2.48;98.44
58757;BME280;44527;47.460;19.016;2023-02-12T06:12:00;101823.94;;;2.47;98.46
58757;BME280;44527;47.460;19.016;2023-02-12T06:15:03;101811.09;;;2.36;98.39
58757;BME280;44527;47.460;19.016;2023-02-12T06:18:06;101819.72;;;2.35;99.15
58757;BME280;44527;47.460;19.016;2023-02-12T06:21:08;101823.19;;;2.37;97.81
58757;BME280;44527;47.460;19.016;2023-02-12T06:24:12;101828.31;;;2.39;97.38
58757;BME280;44527;47.460;19.016;2023-02-12T06:27:14;101834.47;;;2.30;97.96
58757;BME280;44527;47.460;19.016;2023-02-12T06:30:17;101830.06;;;2.38;97.83
58757;BME280;44527;47.460;19.016;2023-02-12T06:33:20;101819.69;;;2.38;97.37
58757;BME280;44527;47.460;19.016;2023-02-12T06:36:23;101837.66;;;2.60;97.85
58757;BME280;44527;47.460;19.016;2023-02-12T06:39:25;101825.47;;;2.72;95.89
58757;BME280;44527;47.460;19.016;2023-02-12T06:42:28;101827.09;;;2.80;95.42
58757;BME280;44527;47.460;19.016;2023-02-12T06:45:31;101831.41;;;2.82;94.75
58757;BME280;44527;47.460;19.016;2023-02-12T06:48:34;101855.53;;;2.89;94.80
58757;BME280;44527;47.460;19.016;2023-02-12T06:51:37;101859.72;;;3.04;94.65
58757;BME280;44527;47.460;19.016;2023-02-12T06:54:47;101871.66;;;3.18;93.24
58757;BME280;44527;47.460;19.016;2023-02-12T06:57:49;101872.91;;;3.59;92.26
58757;BME280;44527;47.460;19.016;2023-02-12T07:00:52;101879.44;;;3.89;91.18
58757;BME280;44527;47.460;19.016;2023-02-12T07:03:57;101877.50;;;4.59;87.53
58757;BME280;44527;47.460;19.016;2023-02-12T07:07:01;101884.66;;;5.41;82.96
58757;BME280;44527;47.460;19.016;2023-02-12T07:10:03;101893.81;;;6.03;80.47
58757;BME280;44527;47.460;19.016;2023-02-12T07:13:06;101898.03;;;6.10;80.15
58757;BME280;44527;47.460;19.016;2023-02-12T07:16:12;101898.37;;;6.32;79.90
58757;BME280;44527;47.460;19.016;2023-02-12T07:19:15;101908.47;;;6.08;80.98
58757;BME280;44527;47.460;19.016;2023-02-12T07:22:19;101903.16;;;6.13;81.48
58757;BME280;44527;47.460;19.016;2023-02-12T07:25:23;101913.06;;;5.97;81.74
58757;BME280;44527;47.460;19.016;2023-02-12T07:28:26;101923.59;;;5.91;83.31
58757;BME280;44527;47.460;19.016;2023-02-12T07:31:29;101919.94;;;6.01;83.35
58757;BME280;44527;47.460;19.016;2023-02-12T07:34:32;101924.31;;;5.99;83.77
58757;BME280;44527;47.460;19.016;2023-02-12T07:37:35;101929.59;;;5.96;83.71
58757;BME280;44527;47.460;19.016;2023-02-12T07:40:37;101937.22;;;6.05;83.27
58757;BME280;44527;47.460;19.016;2023-02-12T07:43:41;101929.44;;;6.02;83.48
58757;BME280;44527;47.460;19.016;2023-02-12T07:46:46;101935.22;;;6.16;82.66
58757;BME280;44527;47.460;19.016;2023-02-12T07:49:50;101947.12;;;6.28;81.63
58757;BME280;44527;47.460;19.016;2023-02-12T07:52:52;101953.56;;;6.52;80.36
58757;BME280;44527;47.460;19.016;2023-02-12T07:55:55;101951.09;;;6.46;80.50
58757;BME280;44527;47.460;19.016;2023-02-12T07:59:08;101955.19;;;6.55;79.98
58757;BME280;44527;47.460;19.016;2023-02-12T08:02:11;101950.56;;;6.67;78.41
58757;BME280;44527;47.460;19.016;2023-02-12T08:05:14;101954.53;;;6.82;77.83
58757;BME280;44527;47.460;19.016;2023-02-12T08:08:16;101961.22;;;6.94;77.51
58757;BME280;44527;47.460;19.016;2023-02-12T08:11:20;101956.81;;;6.96;76.91
58757;BME280;44527;47.460;19.016;2023-02-12T08:14:22;101961.59;;;7.13;76.39
58757;BME280;44527;47.460;19.016;2023-02-12T08:17:28;101966.81;;;7.13;76.08
58757;BME280;44527;47.460;19.016;2023-02-12T08:20:33;101974.31;;;7.27;76.08
58757;BME280;44527;47.460;19.016;2023-02-12T08:23:36;101970.69;;;7.31;75.84
58757;BME280;44527;47.460;19.016;2023-02-12T08:26:39;101973.91;;;7.42;75.19
58757;BME280;44527;47.460;19.016;2023-02-12T08:29:42;101980.22;;;6.99;75.95
58757;BME280;44527;47.460;19.016;2023-02-12T08:32:48;101990.91;;;6.90;77.52
58757;BME280;44527;47.460;19.016;2023-02-12T08:36:00;101985.22;;;6.73;77.81
58757;BME280;44527;47.460;19.016;2023-02-12T08:39:06;101992.81;;;6.83;77.87
58757;BME280;44527;47.460;19.016;2023-02-12T08:42:09;101989.63;;;7.06;76.71
58757;BME280;44527;47.460;19.016;2023-02-12T08:45:11;101997.84;;;7.25;75.35
58757;BME280;44527;47.460;19.016;2023-02-12T08:48:14;101985.66;;;7.26;75.48
58757;BME280;44527;47.460;19.016;2023-02-12T08:51:21;101994.81;;;7.41;75.48
58757;BME280;44527;47.460;19.016;2023-02-12T08:54:26;101999.84;;;7.48;74.68
58757;BME280;44527;47.460;19.016;2023-02-12T08:57:29;102003.81;;;7.63;73.84
58757;BME280;44527;47.460;19.016;2023-02-12T09:00:32;102009.03;;;7.63;74.13
58757;BME280;44527;47.460;19.016;2023-02-12T09:03:34;102007.13;;;7.70;73.30
58757;BME280;44527;47.460;19.016;2023-02-12T09:06:37;102017.13;;;7.54;73.92
58757;BME280;44527;47.460;19.016;2023-02-12T09:09:41;102010.63;;;7.69;73.60
58757;BME280;44527;47.460;19.016;2023-02-12T09:12:45;102024.06;;;7.88;72.92
58757;BME280;44527;47.460;19.016;2023-02-12T09:15:49;102024.88;;;7.90;72.71
58757;BME280;44527;47.460;19.016;2023-02-12T09:18:52;102026.44;;;7.95;71.87
58757;BME280;44527;47.460;19.016;2023-02-12T09:21:55;102029.13;;;7.92;72.81
58757;BME280;44527;47.460;19.016;2023-02-12T09:24:58;102040.91;;;8.09;72.98
58757;BME280;44527;47.460;19.016;2023-02-12T09:28:01;102047.72;;;8.14;71.90
58757;BME280;44527;47.460;19.016;2023-02-12T09:31:08;102047.53;;;8.20;71.22
58757;BME280;44527;47.460;19.016;2023-02-12T09:34:10;102048.31;;;8.24;70.77
58757;BME280;44527;47.460;19.016;2023-02-12T09:37:13;102045.34;;;8.35;70.37
58757;BME280;44527;47.460;19.016;2023-02-12T09:47:14;102051.00;;;8.52;69.38
58757;BME280;44527;47.460;19.016;2023-02-12T09:53:34;102056.06;;;8.57;68.52
58757;BME280;44527;47.460;19.016;2023-02-12T09:56:39;102055.28;;;8.55;68.07
58757;BME280;44527;47.460;19.016;2023-02-12T09:59:47;102054.34;;;8.57;67.48
58757;BME280;44527;47.460;19.016;2023-02-12T10:02:52;102062.22;;;8.56;68.49
58757;BME280;44527;47.460;19.016;2023-02-12T10:06:07;102056.56;;;8.69;68.35
58757;BME280;44527;47.460;19.016;2023-02-12T10:09:32;102060.34;;;8.87;65.73
58757;BME280;44527;47.460;19.016;2023-02-12T10:12:53;102064.19;;;8.77;64.80
58757;BME280;44527;47.460;19.016;2023-02-12T10:26:46;102086.69;;;9.11;63.13
58757;BME280;44527;47.460;19.016;2023-02-12T10:29:50;102088.88;;;9.25;62.53
58757;BME280;44527;47.460;19.016;2023-02-12T10:33:00;102076.91;;;9.16;61.69
58757;BME280;44527;47.460;19.016;2023-02-12T10:36:42;102081.97;;;9.22;61.10
58757;BME280;44527;47.460;19.016;2023-02-12T10:39:59;102087.03;;;9.27;60.13
58757;BME280;44527;47.460;19.016;2023-02-12T10:43:04;102086.44;;;9.45;59.81
58757;BME280;44527;47.460;19.016;2023-02-12T10:46:16;102087.28;;;9.46;60.24
58757;BME280;44527;47.460;19.016;2023-02-12T10:49:19;102093.88;;;9.57;60.67
58757;BME280;44527;47.460;19.016;2023-02-12T10:55:34;102090.28;;;9.85;57.75
58757;BME280;44527;47.460;19.016;2023-02-12T11:01:51;102076.97;;;9.91;57.70
58757;BME280;44527;47.460;19.016;2023-02-12T11:04:57;102079.22;;;10.02;57.78
58757;BME280;44527;47.460;19.016;2023-02-12T11:08:00;102076.53;;;10.03;58.41
58757;BME280;44527;47.460;19.016;2023-02-12T11:11:09;102074.37;;;10.15;57.29
58757;BME280;44527;47.460;19.016;2023-02-12T11:14:19;102077.28;;;10.07;56.63
58757;BME280;44527;47.460;19.016;2023-02-12T11:17:25;102072.56;;;10.17;55.42
58757;BME280;44527;47.460;19.016;2023-02-12T11:23:39;102077.84;;;10.15;55.05
58757;BME280;44527;47.460;19.016;2023-02-12T11:26:41;102073.56;;;10.12;55.92
58757;BME280;44527;47.460;19.016;2023-02-12T11:29:44;102080.38;;;10.18;55.22
58757;BME280;44527;47.460;19.016;2023-02-12T11:32:53;102080.91;;;10.28;55.11
58757;BME280;44527;47.460;19.016;2023-02-12T11:35:59;102080.06;;;10.27;54.70
58757;BME280;44527;47.460;19.016;2023-02-12T11:39:04;102083.69;;;10.23;54.87
58757;BME280;44527;47.460;19.016;2023-02-12T11:42:19;102087.00;;;10.28;54.58
58757;BME280;44527;47.460;19.016;2023-02-12T11:45:33;102086.56;;;10.41;54.04
58757;BME280;44527;47.460;19.016;2023-02-12T11:48:38;102090.91;;;10.65;53.29
58757;BME280;44527;47.460;19.016;2023-02-12T11:51:46;102090.53;;;10.74;53.47
58757;BME280;44527;47.460;19.016;2023-02-12T11:54:50;102093.09;;;10.76;54.53
58757;BME280;44527;47.460;19.016;2023-02-12T11:58:24;102084.03;;;10.61;55.82
58757;BME280;44527;47.460;19.016;2023-02-12T12:01:33;102089.84;;;10.47;56.63
58757;BME280;44527;47.460;19.016;2023-02-12T12:04:39;102083.16;;;10.39;57.22
58757;BME280;44527;47.460;19.016;2023-02-12T12:07:49;102091.91;;;10.38;56.62
58757;BME280;44527;47.460;19.016;2023-02-12T12:11:02;102078.88;;;10.36;56.03
58757;BME280;44527;47.460;19.016;2023-02-12T12:14:31;102078.88;;;10.36;56.75
58757;BME280;44527;47.460;19.016;2023-02-12T12:21:44;102069.97;;;10.40;56.67
58757;BME280;44527;47.460;19.016;2023-02-12T12:25:03;102078.28;;;10.51;55.72
58757;BME280;44527;47.460;19.016;2023-02-12T12:28:38;102074.59;;;10.33;56.89
58757;BME280;44527;47.460;19.016;2023-02-12T12:31:46;102058.56;;;10.16;56.60
58757;BME280;44527;47.460;19.016;2023-02-12T12:34:49;102050.53;;;10.21;56.07
58757;BME280;44527;47.460;19.016;2023-02-12T12:41:50;102055.53;;;10.03;56.72
58757;BME280;44527;47.460;19.016;2023-02-12T12:58:14;102059.97;;;9.78;57.34
58757;BME280;44527;47.460;19.016;2023-02-12T13:01:53;102071.91;;;9.86;57.03
58757;BME280;44527;47.460;19.016;2023-02-12T13:05:29;102068.41;;;10.11;57.29
58757;BME280;44527;47.460;19.016;2023-02-12T13:12:16;102067.31;;;10.17;56.11
58757;BME280;44527;47.460;19.016;2023-02-12T13:19:30;102068.31;;;9.89;58.87
58757;BME280;44527;47.460;19.016;2023-02-12T13:22:51;102071.69;;;9.93;59.58
58757;BME280;44527;47.460;19.016;2023-02-12T13:26:16;102067.66;;;9.82;59.90
58757;BME280;44527;47.460;19.016;2023-02-12T13:29:44;102074.16;;;9.72;60.36
58757;BME280;44527;47.460;19.016;2023-02-12T13:32:58;102070.81;;;9.67;60.53
58757;BME280;44527;47.460;19.016;2023-02-12T13:36:04;102072.38;;;9.73;60.36
58757;BME280;44527;47.460;19.016;2023-02-12T13:39:37;102071.47;;;9.74;60.14
58757;BME280;44527;47.460;19.016;2023-02-12T13:43:12;102073.81;;;9.81;60.11
58757;BME280;44527;47.460;19.016;2023-02-12T13:52:53;102086.91;;;9.31;60.48
58757;BME280;44527;47.460;19.016;2023-02-12T13:56:56;102092.03;;;9.34;60.98
58757;BME280;44527;47.460;19.016;2023-02-12T14:05:42;102107.47;;;9.69;59.87
58757;BME280;44527;47.460;19.016;2023-02-12T14:08:47;102099.44;;;9.73;59.57
58757;BME280;44527;47.460;19.016;2023-02-12T14:11:53;102099.56;;;9.70;59.09
58757;BME280;44527;47.460;19.016;2023-02-12T14:18:34;102091.41;;;9.26;60.71
58757;BME280;44527;47.460;19.016;2023-02-12T14:21:37;102090.81;;;9.18;61.92
58757;BME280;44527;47.460;19.016;2023-02-12T14:24:47;102096.25;;;9.12;62.03
58757;BME280;44527;47.460;19.016;2023-02-12T14:27:56;102094.69;;;9.06;61.62
58757;BME280;44527;47.460;19.016;2023-02-12T14:37:35;102094.25;;;8.92;62.45
58757;BME280;44527;47.460;19.016;2023-02-12T14:40:41;102101.41;;;8.87;62.70
58757;BME280;44527;47.460;19.016;2023-02-12T14:43:46;102111.84;;;8.88;62.36
58757;BME280;44527;47.460;19.016;2023-02-12T14:47:11;102112.16;;;8.78;62.30
58757;BME280;44527;47.460;19.016;2023-02-12T14:50:27;102111.19;;;8.82;61.52
58757;BME280;44527;47.460;19.016;2023-02-12T14:53:33;102113.00;;;8.78;62.29
58757;BME280;44527;47.460;19.016;2023-02-12T14:56:44;102124.72;;;8.66;62.64
58757;BME280;44527;47.460;19.016;2023-02-12T14:59:48;102119.34;;;8.71;62.05
58757;BME280;44527;47.460;19.016;2023-02-12T15:02:58;102118.25;;;8.78;61.96
58757;BME280;44527;47.460;19.016;2023-02-12T15:06:09;102111.22;;;8.50;63.24
58757;BME280;44527;47.460;19.016;2023-02-12T15:10:26;102114.09;;;8.41;64.42
58757;BME280;44527;47.460;19.016;2023-02-12T15:20:21;102122.16;;;8.32;62.95
58757;BME280;44527;47.460;19.016;2023-02-12T15:23:40;102126.88;;;8.19;63.43
58757;BME280;44527;47.460;19.016;2023-02-12T15:26:51;102126.28;;;8.10;64.39
58757;BME280;44527;47.460;19.016;2023-02-12T15:29:56;102133.12;;;8.14;63.94
58757;BME280;44527;47.460;19.016;2023-02-12T15:33:02;102131.00;;;7.97;64.75
58757;BME280;44527;47.460;19.016;2023-02-12T15:36:07;102132.94;;;7.89;64.97
58757;BME280;44527;47.460;19.016;2023-02-12T15:39:20;102124.66;;;7.71;65.83
58757;BME280;44527;47.460;19.016;2023-02-12T15:42:32;102124.25;;;7.54;66.44
58757;BME280;44527;47.460;19.016;2023-02-12T15:45:35;102119.56;;;7.32;67.41
58757;BME280;44527;47.460;19.016;2023-02-12T15:48:38;102134.81;;;7.13;68.47
58757;BME280;44527;47.460;19.016;2023-02-12T15:51:41;102132.44;;;7.03;68.46
58757;BME280;44527;47.460;19.016;2023-02-12T15:54:44;102132.84;;;6.84;70.08
58757;BME280;44527;47.460;19.016;2023-02-12T15:57:49;102143.47;;;6.75;70.55
58757;BME280;44527;47.460;19.016;2023-02-12T16:00:55;102143.84;;;6.58;71.10
58757;BME280;44527;47.460;19.016;2023-02-12T16:04:05;102156.44;;;6.36;71.51
58757;BME280;44527;47.460;19.016;2023-02-12T16:07:09;102157.56;;;6.25;72.57
58757;BME280;44527;47.460;19.016;2023-02-12T16:10:15;102158.75;;;6.07;74.01
58757;BME280;44527;47.460;19.016;2023-02-12T16:13:26;102164.22;;;5.90;74.53
58757;BME280;44527;47.460;19.016;2023-02-12T16:16:42;102159.16;;;5.81;74.40
58757;BME280;44527;47.460;19.016;2023-02-12T16:23:17;102175.22;;;5.56;75.50
58757;BME280;44527;47.460;19.016;2023-02-12T16:26:24;102181.41;;;5.49;75.43
58757;BME280;44527;47.460;19.016;2023-02-12T16:29:28;102186.84;;;5.32;76.60
58757;BME280;44527;47.460;19.016;2023-02-12T16:32:39;102192.19;;;5.24;76.72
58757;BME280;44527;47.460;19.016;2023-02-12T16:35:42;102191.34;;;5.24;76.46
58757;BME280;44527;47.460;19.016;2023-02-12T16:41:54;102192.63;;;4.94;77.67
58757;BME280;44527;47.460;19.016;2023-02-12T16:44:57;102196.37;;;4.68;78.77
58757;BME280;44527;47.460;19.016;2023-02-12T16:48:16;102197.53;;;4.44;79.76
58757;BME280;44527;47.460;19.016;2023-02-12T16:51:26;102207.22;;;4.28;81.06
58757;BME280;44527;47.460;19.016;2023-02-12T16:54:34;102216.63;;;4.40;81.26
58757;BME280;44527;47.460;19.016;2023-02-12T16:57:36;102221.00;;;4.38;81.17
58757;BME280;44527;47.460;19.016;2023-02-12T17:00:39;102210.47;;;4.49;80.88
58757;BME280;44527;47.460;19.016;2023-02-12T17:03:42;102220.97;;;4.40;81.50
58757;BME280;44527;47.460;19.016;2023-02-12T17:06:46;102225.38;;;4.33;81.52
58757;BME280;44527;47.460;19.016;2023-02-12T17:09:48;102232.38;;;4.25;81.72
58757;BME280;44527;47.460;19.016;2023-02-12T17:12:51;102229.13;;;4.03;83.37
58757;BME280;44527;47.460;19.016;2023-02-12T17:15:57;102233.47;;;4.01;83.22
58757;BME280;44527;47.460;19.016;2023-02-12T17:19:02;102237.81;;;4.00;83.12
58757;BME280;44527;47.460;19.016;2023-02-12T17:22:06;102234.44;;;3.87;83.46
58757;BME280;44527;47.460;19.016;2023-02-12T17:25:11;102234.53;;;3.75;83.58
58757;BME280;44527;47.460;19.016;2023-02-12T17:28:14;102241.59;;;3.58;83.22
58757;BME280;44527;47.460;19.016;2023-02-12T17:31:17;102235.50;;;3.60;83.78
58757;BME280;44527;47.460;19.016;2023-02-12T17:34:22;102228.62;;;3.55;85.08
58757;BME280;44527;47.460;19.016;2023-02-12T17:37:25;102236.44;;;3.52;85.30
58757;BME280;44527;47.460;19.016;2023-02-12T17:40:28;102234.69;;;3.54;85.14
58757;BME280;44527;47.460;19.016;2023-02-12T17:43:30;102230.37;;;3.51;85.67
58757;BME280;44527;47.460;19.016;2023-02-12T17:46:33;102229.56;;;3.49;85.85
58757;BME280;44527;47.460;19.016;2023-02-12T17:49:35;102242.53;;;3.49;85.65
58757;BME280;44527;47.460;19.016;2023-02-12T17:52:39;102243.44;;;3.43;85.00
58757;BME280;44527;47.460;19.016;2023-02-12T17:55:42;102247.81;;;3.29;85.37
58757;BME280;44527;47.460;19.016;2023-02-12T17:58:45;102252.22;;;3.16;85.60
58757;BME280;44527;47.460;19.016;2023-02-12T18:01:48;102257.44;;;3.10;86.70
58757;BME280;44527;47.460;19.016;2023-02-12T18:04:50;102259.22;;;2.97;86.34
58757;BME280;44527;47.460;19.016;2023-02-12T18:07:53;102262.72;;;2.83;87.12
58757;BME280;44527;47.460;19.016;2023-02-12T18:10:57;102264.50;;;2.68;87.92
58757;BME280;44527;47.460;19.016;2023-02-12T18:14:00;102264.50;;;2.76;87.95
58757;BME280;44527;47.460;19.016;2023-02-12T18:17:03;102272.25;;;2.71;88.72
58757;BME280;44527;47.460;19.016;2023-02-12T18:20:06;102271.44;;;2.69;87.91
58757;BME280;44527;47.460;19.016;2023-02-12T18:23:09;102272.34;;;2.30;90.08
58757;BME280;44527;47.460;19.016;2023-02-12T18:26:17;102268.00;;;2.32;89.77